Time;durP1;ratioP1;P1;durP2;ratioP2;P2;SDS_P1;SDS_P2;PMS_P1;PMS_P2;Temp;Humidity;BMP_temperature;BMP_pressure;BME280_temperature;BME280_humidity;BME280_pressure;Samples;Min_cycle;Max_cycle;Signal;HPM_P1;HPM_P2
2021/07/02 00:02:18;;;;;;;6.73;3.60;;;14.30;1.00;;;26.05;45.98;98109.28;5074238;28;20209;-75
2021/07/02 00:04:45;;;;;;;9.07;4.30;;;14.30;1.00;;;26.51;44.98;98114.81;5072845;28;20236;-75
2021/07/02 00:07:13;;;;;;;6.60;3.73;;;14.30;1.00;;;26.25;46.00;98105.41;5073618;28;20597;-74
2021/07/02 00:09:40;;;;;;;5.43;3.13;;;14.30;1.00;;;25.71;47.18;98105.94;5073442;28;20201;-74
2021/07/02 00:12:07;;;;;;;4.70;3.60;;;14.30;1.00;;;25.94;46.82;98098.81;5073220;28;20208;-75
2021/07/02 00:14:34;;;;;;;5.97;3.77;;;14.30;1.00;;;25.86;46.20;98103.00;5072292;28;20240;-76
2021/07/02 00:17:01;;;;;;;6.87;4.03;;;14.30;1.00;;;25.53;47.42;98098.53;5072810;28;20657;-76
2021/07/02 00:19:30;;;;;;;9.63;3.83;;;14.30;1.00;;;25.75;46.64;98101.50;5073117;28;20210;-76
2021/07/02 00:21:57;;;;;;;4.03;3.10;;;14.30;1.00;;;25.90;46.90;98098.53;5061506;28;20312;-76
2021/07/02 00:24:26;;;;;;;4.53;3.23;;;14.30;1.00;;;26.31;45.69;98104.22;5073255;28;20308;-76
2021/07/02 00:26:53;;;;;;;6.20;3.80;;;14.30;1.00;;;26.29;45.51;98103.72;5070873;28;20568;-75
2021/07/02 00:29:20;;;;;;;6.53;4.33;;;14.30;1.00;;;25.33;48.45;98092.56;5073378;28;20220;-75
2021/07/02 00:31:47;;;;;;;6.57;4.27;;;14.20;1.00;;;25.39;47.89;98097.63;5073244;28;20220;-76
2021/07/02 00:34:14;;;;;;;4.40;3.50;;;14.10;1.00;;;25.21;48.33;98092.94;5072691;28;20258;-75
2021/07/02 00:36:41;;;;;;;5.97;3.70;;;14.10;1.00;;;26.26;46.18;98096.09;5072000;28;20201;-76
2021/07/02 00:39:08;;;;;;;6.43;3.87;;;14.10;1.00;;;26.16;45.96;98090.78;5072767;28;20197;-76
2021/07/02 00:41:36;;;;;;;5.03;3.53;;;14.10;1.00;;;25.17;49.15;98085.59;5072548;28;20621;-76
2021/07/02 00:44:04;;;;;;;6.37;4.03;;;14.00;1.00;;;25.00;49.99;98088.00;5072448;28;20228;-76
2021/07/02 00:46:31;;;;;;;6.77;4.27;;;13.90;1.00;;;24.96;50.39;98085.03;5072251;28;20199;-76
2021/07/02 00:48:58;;;;;;;6.57;3.73;;;13.80;1.00;;;25.27;48.89;98083.59;5072427;28;20224;-76
2021/07/02 00:51:29;;;;;;;5.40;3.83;;;13.80;1.00;;;26.38;46.21;98088.22;5070472;28;20213;-76
2021/07/02 00:53:56;;;;;;;9.40;4.30;;;13.80;1.00;;;26.10;46.14;98091.97;5072558;28;20185;-76
2021/07/02 00:56:23;;;;;;;6.77;3.83;;;13.70;1.00;;;25.98;46.60;98078.75;5072353;28;20225;-77
2021/07/02 00:58:51;;;;;;;6.30;3.67;;;13.70;1.00;;;26.02;46.10;98082.53;5072153;28;20212;-76
2021/07/02 01:01:18;;;;;;;7.13;3.90;;;13.70;1.00;;;25.91;46.67;98074.75;5072514;28;20212;-76
2021/07/02 01:03:48;;;;;;;6.10;4.13;;;13.70;1.00;;;24.86;49.47;98084.34;5065303;28;20202;-76
2021/07/02 01:06:16;;;;;;;6.33;3.80;;;13.70;1.00;;;25.70;47.28;98073.44;5071514;28;20627;-75
2021/07/02 01:08:45;;;;;;;7.47;4.10;;;13.70;1.00;;;25.15;48.40;98080.44;5069411;28;20215;-76
2021/07/02 01:11:13;;;;;;;8.17;4.20;;;13.70;1.00;;;25.55;47.60;98081.84;5067167;28;20221;-76
2021/07/02 01:13:40;;;;;;;9.13;3.83;;;13.70;1.00;;;25.06;48.90;98084.94;5071553;28;20200;-76
2021/07/02 01:16:09;;;;;;;9.37;3.77;;;13.70;1.00;;;25.62;47.31;98082.28;5071006;28;20592;-76
2021/07/02 01:18:38;;;;;;;4.97;3.93;;;13.70;1.00;;;25.66;47.11;98080.59;5069584;28;20212;-76
2021/07/02 01:21:07;;;;;;;7.33;4.00;;;13.60;1.00;;;25.91;46.61;98081.06;5064809;28;20685;-76
2021/07/02 01:23:34;;;;;;;4.93;3.43;;;13.60;1.00;;;25.46;47.01;98084.44;5068768;28;20220;-75
2021/07/02 01:26:01;;;;;;;8.30;4.70;;;13.60;1.00;;;25.58;46.76;98087.53;5071919;28;20583;-75
2021/07/02 01:28:28;;;;;;;6.23;4.37;;;13.60;1.00;;;25.27;47.89;98080.03;5071827;28;20294;-73
2021/07/02 01:30:55;;;;;;;5.97;3.90;;;13.70;1.00;;;25.60;47.19;98079.03;5071902;28;20197;-74
2021/07/02 01:33:21;;;;;;;6.60;3.97;;;13.70;1.00;;;26.23;45.27;98085.72;5071258;28;20219;-73
2021/07/02 01:35:48;;;;;;;7.27;3.90;;;13.70;1.00;;;25.29;47.37;98078.63;5070235;28;20232;-75
2021/07/02 01:38:17;;;;;;;7.10;4.10;;;13.80;1.00;;;25.60;46.64;98085.34;5070706;28;20235;-74
2021/07/02 01:40:44;;;;;;;5.40;3.70;;;13.80;1.00;;;25.75;46.60;98073.34;5071027;28;20212;-74
2021/07/02 01:43:10;;;;;;;6.97;3.70;;;13.80;1.00;;;25.74;46.12;98088.94;5071639;28;20684;-75
2021/07/02 01:45:37;;;;;;;10.23;3.90;;;13.80;1.00;;;25.90;45.79;98084.06;5068049;28;20224;-74
2021/07/02 01:48:05;;;;;;;8.50;3.83;;;13.80;1.00;;;25.57;46.57;98093.28;5069154;28;20212;-74
2021/07/02 01:50:32;;;;;;;7.37;3.40;;;13.70;1.00;;;26.08;45.10;98089.53;5068348;28;20205;-74
2021/07/02 01:52:59;;;;;;;5.23;3.90;;;13.70;1.00;;;24.92;48.34;98080.44;5065403;28;20212;-78
2021/07/02 01:55:27;;;;;;;5.10;3.60;;;13.60;1.00;;;25.67;46.53;98084.94;5065408;28;20236;-76
2021/07/02 01:57:54;;;;;;;7.57;4.10;;;13.70;99.90;;;26.06;44.96;98096.41;5070586;28;20205;-75
2021/07/02 02:00:21;;;;;;;6.63;3.87;;;13.60;99.90;;;25.33;47.57;98087.09;5069912;28;20206;-75
2021/07/02 02:02:48;;;;;;;7.30;3.77;;;13.50;21.60;;;25.04;47.84;98089.84;5068149;28;20313;-74
2021/07/02 02:05:15;;;;;;;6.23;3.77;;;13.50;1.00;;;25.41;47.55;98084.50;5065012;28;20235;-75
2021/07/02 02:07:42;;;;;;;7.07;4.10;;;13.50;1.00;;;25.55;46.83;98088.16;5070413;28;20205;-76
2021/07/02 02:10:10;;;;;;;5.03;3.80;;;13.40;1.00;;;25.82;45.78;98084.72;5070964;28;20216;-75
2021/07/02 02:12:38;;;;;;;6.97;3.97;;;13.40;1.00;;;25.19;47.42;98086.94;5066249;28;20218;-75
2021/07/02 02:15:07;;;;;;;6.77;4.07;;;13.30;99.90;;;25.56;47.22;98080.75;5069358;28;20237;-76
2021/07/02 02:17:36;;;;;;;5.40;3.90;;;;;;;25.09;47.75;98084.31;5069970;28;20572;-75
2021/07/02 02:20:07;;;;;;;7.07;4.10;;;;;;;25.46;46.63;98081.72;5070529;28;20204;-74
2021/07/02 02:22:34;;;;;;;5.93;4.17;;;;;;;24.83;48.40;98077.53;5069521;28;20213;-75
2021/07/02 02:25:02;;;;;;;5.47;3.53;;;;;;;25.19;48.08;98073.28;5070268;28;20699;-76
2021/07/02 02:27:29;;;;;;;6.23;4.57;;;;;;;23.88;52.00;98066.66;5067942;28;20720;-73
2021/07/02 02:29:57;;;;;;;7.07;4.50;;;;;;;25.05;48.66;98071.56;5070597;28;20209;-75
2021/07/02 02:32:25;;;;;;;5.43;3.97;;;;;;;24.86;49.22;98076.16;5062365;28;20212;-74
2021/07/02 02:34:52;;;;;;;6.70;4.43;;;;;;;24.75;50.04;98067.28;5070685;28;20708;-74
2021/07/02 02:37:19;;;;;;;9.90;4.30;;;;;;;24.93;48.95;98074.69;5070195;28;20234;-74
2021/07/02 02:39:46;;;;;;;7.50;4.53;;;;;;;25.56;46.49;98080.75;5070770;28;20211;-73
2021/07/02 02:42:14;;;;;;;7.90;4.03;;;;;;;24.87;49.01;98075.06;5070622;28;20231;-73
2021/07/02 02:44:41;;;;;;;6.20;4.10;;;;;;;24.90;48.44;98080.75;5065528;28;20237;-74
2021/07/02 02:47:10;;;;;;;6.97;3.63;;;;;;;24.64;49.93;98073.94;5067486;28;20213;-74
2021/07/02 02:49:37;;;;;;;7.33;4.17;;;;;;;24.84;48.65;98081.09;5068627;28;20205;-73
2021/07/02 02:52:05;;;;;;;8.43;3.67;;;;;;;23.73;51.90;98078.50;5069868;28;20210;-73
2021/07/02 02:54:33;;;;;;;6.03;4.30;;;;;;;25.03;48.37;98077.31;5074311;28;20221;-74
2021/07/02 02:57:07;;;;;;;7.60;4.40;;;;;;;24.29;50.49;98073.44;5073307;28;20231;-73
2021/07/02 02:59:35;;;;;;;6.80;4.43;;;;;;;24.11;51.27;98072.22;5066236;28;20288;-72
2021/07/02 03:02:03;;;;;;;8.63;4.23;;;;;;;24.54;50.46;98071.28;5072054;28;20211;-73
2021/07/02 03:04:32;;;;;;;9.57;4.90;;;;;;;24.26;51.18;98074.00;5069603;28;20251;-73
2021/07/02 03:06:59;;;;;;;6.57;4.60;;;;;;;25.13;48.09;98081.84;5074390;28;20197;-74
2021/07/02 03:09:26;;;;;;;6.97;4.13;;;;;;;24.51;49.32;98077.31;5078231;28;20300;-73
2021/07/02 03:11:54;;;;;;;8.33;4.57;;;;;;;24.24;51.73;98078.94;5068518;28;20259;-73
2021/07/02 03:14:22;;;;;;;6.73;4.00;;;;;;;25.03;48.55;98080.03;5071629;28;20221;-75
2021/07/02 03:16:49;;;;;;;6.93;4.47;;;;;;;24.41;50.55;98076.59;5073156;28;20228;-74
2021/07/02 03:19:17;;;;;;;10.83;5.53;;;;;;;23.79;51.24;98080.09;5073652;28;20214;-74
2021/07/02 03:21:46;;;;;;;7.83;4.43;;;;;;;24.11;50.41;98076.88;5066792;28;20202;-76
2021/07/02 03:24:13;;;;;;;6.13;4.43;;;12.50;1.00;;;23.91;52.33;98063.41;5074506;28;20309;-76
2021/07/02 03:26:40;;;;;;;7.37;4.30;;;12.50;1.00;;;24.46;49.93;98082.81;5066645;28;20214;-75
2021/07/02 03:29:07;;;;;;;6.83;4.73;;;12.40;1.00;;;24.56;49.86;98073.72;5073151;28;20204;-75
2021/07/02 03:31:35;;;;;;;5.83;4.50;;;12.30;1.00;;;24.63;49.51;98076.97;5073461;28;20201;-76
2021/07/02 03:34:02;;;;;;;6.53;4.17;;;12.30;1.00;;;23.60;53.13;98072.84;5072020;28;20233;-75
2021/07/02 03:36:29;;;;;;;5.60;4.10;;;12.20;1.00;;;23.92;51.81;98074.00;5073879;28;20721;-75
2021/07/02 03:38:57;;;;;;;7.40;4.57;;;12.30;1.00;;;23.82;51.82;98084.16;5066530;28;20572;-75
2021/07/02 03:41:24;;;;;;;10.73;4.77;;;12.20;1.00;;;23.68;52.92;98073.09;5074425;28;20570;-75
2021/07/02 03:43:51;;;;;;;8.97;5.17;;;12.30;1.00;;;23.90;52.39;98089.84;5074581;28;20316;-74
2021/07/02 03:46:18;;;;;;;8.30;4.60;;;12.30;1.00;;;24.06;51.24;98101.47;5073141;28;20248;-74
2021/07/02 03:48:45;;;;;;;10.90;4.20;;;12.20;1.00;;;23.63;52.36;98097.66;5072550;28;20322;-75
2021/07/02 03:51:12;;;;;;;8.13;4.47;;;12.30;1.00;;;23.77;52.17;98090.44;5073183;28;20203;-74
2021/07/02 03:53:39;;;;;;;6.33;4.13;;;12.30;1.00;;;24.06;51.02;98090.56;5069103;28;20216;-75
2021/07/02 03:56:09;;;;;;;7.13;4.70;;;12.40;1.00;;;24.30;50.65;98091.44;5073497;28;20232;-75
2021/07/02 03:58:36;;;;;;;6.73;4.43;;;12.40;1.00;;;23.81;52.93;98093.44;5072067;28;20211;-75
2021/07/02 04:01:03;;;;;;;6.87;4.43;;;12.40;1.00;;;23.94;52.12;98095.53;5070120;28;20666;-75
2021/07/02 04:03:31;;;;;;;7.27;4.57;;;12.50;1.00;;;23.97;51.74;98092.25;5068242;28;20206;-74
2021/07/02 04:05:59;;;;;;;8.07;4.53;;;12.50;1.00;;;24.77;48.69;98095.09;5073197;28;20263;-75
2021/07/02 04:08:26;;;;;;;7.40;4.80;;;12.60;1.00;;;23.39;53.07;98090.41;5073211;28;20321;-74
2021/07/02 04:10:53;;;;;;;6.77;4.53;;;12.70;1.00;;;23.36;53.18;98085.53;5071483;28;20244;-75
2021/07/02 04:13:21;;;;;;;11.90;4.50;;;12.80;1.00;;;24.00;50.92;98091.69;5073060;28;20199;-74
2021/07/02 04:15:48;;;;;;;7.57;4.30;;;12.90;1.00;;;24.05;50.91;98092.47;5069477;28;20233;-74
2021/07/02 04:18:15;;;;;;;6.50;4.10;;;13.00;1.00;;;24.61;49.57;98088.16;5068415;28;20266;-74
2021/07/02 04:20:42;;;;;;;10.00;4.47;;;13.10;1.00;;;24.51;50.36;98090.13;5072075;28;20680;-74
2021/07/02 04:23:10;;;;;;;6.37;4.50;;;;;;;25.02;48.38;98099.44;5068473;28;20213;-74
2021/07/02 04:25:37;;;;;;;7.13;4.13;;;;;;;24.22;49.59;98108.44;5072023;28;20213;-73
2021/07/02 04:28:05;;;;;;;6.97;4.23;;;;;;;24.93;48.85;98103.94;5067941;28;20204;-74
2021/07/02 04:30:33;;;;;;;8.77;3.93;;;;;;;25.73;46.11;98117.41;5067404;28;20209;-74
2021/07/02 04:33:01;;;;;;;9.10;3.87;;;;;;;26.17;44.72;98114.28;5071192;28;20205;-73
2021/07/02 04:35:28;;;;;;;5.63;3.97;;;;;;;26.07;44.88;98111.72;5070973;28;20761;-75
2021/07/02 04:37:55;;;;;;;7.30;4.43;;;;;;;25.77;45.07;98114.88;5067232;28;20230;-73
2021/07/02 04:40:22;;;;;;;7.93;4.33;;;;;;;25.78;45.32;98117.31;5070808;28;20209;-75
2021/07/02 04:42:50;;;;;;;8.03;4.60;;;;;;;26.65;42.95;98121.19;5072915;28;20201;-77
2021/07/02 04:45:17;;;;;;;5.77;4.17;;;;;;;26.46;43.34;98120.38;5072069;28;20691;-74
2021/07/02 04:47:45;;;;;;;6.77;4.00;;;;;;;26.65;42.58;98119.22;5070664;28;20576;-75
2021/07/02 04:50:13;;;;;;;6.13;4.30;;;;;;;26.65;42.32;98121.97;5068814;28;20207;-74
2021/07/02 04:52:40;;;;;;;5.80;3.90;;;;;;;27.08;41.56;98119.78;5070009;28;20213;-74
2021/07/02 04:55:09;;;;;;;8.00;4.37;;;;;;;26.84;41.90;98125.47;5068474;28;20255;-74
2021/07/02 04:57:36;;;;;;;8.00;4.20;;;;;;;26.17;44.11;98126.06;5071773;28;20713;-74
2021/07/02 05:00:05;;;;;;;5.27;3.83;;;;;;;26.84;42.06;98119.16;5071608;28;20205;-75
2021/07/02 05:02:32;;;;;;;7.30;3.90;;;;;;;26.91;41.96;98125.88;5071604;28;20217;-74
2021/07/02 05:05:01;;;;;;;8.07;4.83;;;;;;;26.76;42.85;98117.13;5061754;28;20244;-72
2021/07/02 05:07:29;;;;;;;6.83;4.30;;;;;;;28.08;38.77;98123.16;5072134;28;20570;-74
2021/07/02 05:09:56;;;;;;;5.17;3.80;;;;;;;28.04;39.01;98124.88;5068596;28;20210;-73
2021/07/02 05:12:24;;;;;;;6.43;4.23;;;;;;;28.15;38.44;98134.50;5067228;28;20216;-73
2021/07/02 05:14:51;;;;;;;5.00;3.70;;;;;;;28.15;38.15;98135.31;5069143;28;20232;-72
2021/07/02 05:17:18;;;;;;;6.27;3.90;;;;;;;27.32;40.01;98137.69;5062042;28;20690;-71
2021/07/02 05:19:45;;;;;;;5.33;3.77;;;;;;;27.11;40.80;98132.91;5069423;28;20216;-71
2021/07/02 05:22:16;;;;;;;5.77;4.23;;;;;;;27.60;39.23;98133.00;5071281;28;20228;-74
2021/07/02 05:24:44;;;;;;;7.30;4.13;;;;;;;26.99;40.65;98138.03;5071644;28;20318;-72
2021/07/02 05:27:11;;;;;;;9.57;4.47;;;;;;;28.19;38.40;98138.25;5071915;28;20214;-74
2021/07/02 05:29:39;;;;;;;8.40;4.20;;;;;;;28.29;37.83;98138.00;5067565;28;20548;-76
2021/07/02 05:32:07;;;;;;;6.67;3.90;;;;;;;27.98;38.44;98139.84;5071114;28;20207;-77
2021/07/02 05:34:34;;;;;;;5.97;3.90;;;15.30;1.00;;;28.72;37.24;98144.63;5070958;28;20227;-72
2021/07/02 05:37:03;;;;;;;7.97;4.10;;;15.30;1.00;;;28.01;38.67;98141.97;5066462;28;20591;-76
2021/07/02 05:39:31;;;;;;;8.03;3.90;;;15.40;1.00;;;28.29;38.39;98143.50;5070599;28;20203;-73
2021/07/02 05:41:58;;;;;;;5.63;3.77;;;15.50;1.00;;;28.11;38.53;98144.47;5067926;28;20211;-72
2021/07/02 05:44:25;;;;;;;6.17;3.93;;;15.60;1.00;;;28.65;37.53;98144.28;5071467;28;20233;-72
2021/07/02 05:46:52;;;;;;;5.67;3.70;;;15.70;1.00;;;27.34;39.31;98146.44;5070584;28;20622;-75
2021/07/02 05:49:19;;;;;;;7.63;4.23;;;15.50;1.00;;;28.37;38.21;98149.06;5069978;28;20222;-72
2021/07/02 05:51:47;;;;;;;5.50;3.93;;;15.40;1.00;;;28.05;38.22;98157.53;5071155;28;20203;-73
2021/07/02 05:54:14;;;;;;;8.17;4.20;;;15.40;1.00;;;28.45;37.73;98153.03;5072144;28;20293;-72
2021/07/02 05:56:43;;;;;;;6.53;3.70;;;15.60;1.00;;;27.95;39.12;98140.47;5062454;28;20232;-72
2021/07/02 05:59:09;;;;;;;5.63;3.80;;;15.80;1.00;;;27.93;38.19;98150.94;5063255;28;20206;-72
2021/07/02 06:01:36;;;;;;;8.10;3.70;;;16.00;1.00;;;29.46;35.66;98160.22;5077516;28;20200;-72
2021/07/02 06:04:05;;;;;;;9.67;3.80;;;16.30;1.00;;;29.45;35.72;98158.59;5067127;28;20211;-73
2021/07/02 06:06:32;;;;;;;5.87;3.33;;;16.60;1.00;;;28.98;36.28;98159.38;5067368;28;20203;-72
2021/07/02 06:08:59;;;;;;;9.53;4.63;;;16.80;1.00;;;29.08;36.92;98151.66;5065764;28;20204;-74
2021/07/02 06:11:26;;;;;;;5.60;3.80;;;16.80;1.00;;;29.23;36.29;98161.44;5070536;28;20215;-74
2021/07/02 06:13:54;;;;;;;5.23;3.93;;;16.80;1.00;;;28.79;37.39;98156.78;5066362;28;20684;-74
2021/07/02 06:16:21;;;;;;;7.00;3.87;;;17.00;1.00;;;28.60;38.27;98156.22;5068272;28;20236;-74
2021/07/02 06:18:48;;;;;;;7.07;3.93;;;17.10;1.00;;;29.01;37.91;98158.72;5070001;28;20664;-72
2021/07/02 06:21:15;;;;;;;5.17;3.83;;;17.20;1.00;;;28.63;38.40;98163.00;5064129;28;20209;-78
2021/07/02 06:23:42;;;;;;;8.97;3.90;;;17.30;1.00;;;28.82;37.98;98164.41;5067536;28;20216;-71
2021/07/02 06:26:09;;;;;;;6.87;3.87;;;17.40;1.00;;;29.19;36.42;98172.22;5068076;28;20227;-73
2021/07/02 06:28:37;;;;;;;8.00;3.90;;;17.60;1.00;;;28.14;39.42;98163.91;5070533;28;20630;-71
2021/07/02 06:31:06;;;;;;;8.33;4.67;;;17.60;1.00;;;28.96;37.48;98169.81;5074213;28;20675;-71
2021/07/02 06:33:33;;;;;;;5.37;3.90;;;17.70;1.00;;;29.03;36.05;98179.28;5067665;28;20206;-72
2021/07/02 06:36:00;;;;;;;4.60;3.70;;;17.90;1.00;;;29.11;36.86;98174.94;5069220;28;20286;-72
2021/07/02 06:38:27;;;;;;;4.83;3.47;;;17.90;1.00;;;29.31;36.17;98180.72;5070332;28;20224;-71
2021/07/02 06:40:54;;;;;;;10.63;4.10;;;18.10;1.00;;;29.93;35.14;98190.47;5070936;28;20655;-72
2021/07/02 06:43:21;;;;;;;6.17;4.33;;;18.20;1.00;;;29.42;35.80;98195.81;5071627;28;20232;-73
2021/07/02 06:45:48;;;;;;;5.90;3.97;;;18.30;1.00;;;29.54;35.65;98186.94;5071499;28;20218;-71
2021/07/02 06:48:17;;;;;;;6.13;4.03;;;18.20;1.00;;;29.36;35.42;98188.81;5072601;28;20207;-74
2021/07/02 06:50:45;;;;;;;7.07;4.77;;;18.30;1.00;;;28.64;36.11;98192.09;5071815;28;20216;-75
2021/07/02 06:53:13;;;;;;;6.67;4.40;;;18.40;1.00;;;29.23;35.16;98186.19;5073940;28;20304;-74
2021/07/02 06:55:41;;;;;;;8.33;4.00;;;18.30;1.00;;;28.95;36.78;98190.19;5073497;28;20228;-74
2021/07/02 06:58:09;;;;;;;8.20;4.33;;;18.30;1.00;;;27.65;38.80;98190.47;5073548;28;20255;-74
2021/07/02 07:00:41;;;;;;;5.87;3.77;;;18.30;1.00;;;27.83;38.89;98187.63;5074209;28;20217;-74
2021/07/02 07:03:08;;;;;;;6.87;4.10;;;18.30;1.00;;;28.44;37.33;98192.59;5074776;28;20205;-74
2021/07/02 07:05:38;;;;;;;5.10;3.77;;;18.40;1.00;;;28.69;36.50;98192.75;5074835;28;20247;-73
2021/07/02 07:08:07;;;;;;;6.03;3.90;;;18.40;1.00;;;28.61;36.57;98198.19;5074513;28;20561;-73
2021/07/02 07:10:35;;;;;;;6.03;4.03;;;18.40;1.00;;;29.48;35.52;98196.44;5070371;28;20218;-75
2021/07/02 07:13:05;;;;;;;3.93;3.50;;;18.40;1.00;;;29.41;36.34;98185.94;5072247;28;20208;-74
2021/07/02 07:15:32;;;;;;;4.40;3.53;;;18.40;1.00;;;28.36;35.46;98204.28;5074791;28;20229;-73
2021/07/02 07:17:59;;;;;;;5.83;4.03;;;18.60;1.00;;;28.89;35.18;98206.00;5070657;28;20263;-73
2021/07/02 07:20:27;;;;;;;10.40;4.17;;;18.60;1.00;;;30.47;32.90;98202.84;5073753;28;20293;-74
2021/07/02 07:22:55;;;;;;;6.37;3.83;;;18.90;1.00;;;29.62;33.25;98213.69;5073060;28;20241;-74
2021/07/02 07:25:22;;;;;;;6.83;3.70;;;19.20;1.00;;;30.04;33.33;98199.22;5072764;28;20221;-74
2021/07/02 07:27:49;;;;;;;4.83;3.70;;;;;;;31.98;29.89;98201.97;5074688;28;20209;-74
2021/07/02 07:30:17;;;;;;;5.83;3.90;;;;;;;30.96;30.99;98213.38;5069428;28;20676;-74
2021/07/02 07:32:46;;;;;;;6.50;3.57;;;19.70;1.00;;;30.10;32.32;98220.78;5074376;28;20659;-74
2021/07/02 07:35:18;;;;;;;6.30;3.80;;;19.60;1.00;;;29.45;33.46;98213.59;5073410;28;20223;-75
2021/07/02 07:37:47;;;;;;;5.37;3.73;;;19.20;1.00;;;30.26;32.77;98212.91;5073308;28;20286;-74
2021/07/02 07:40:16;;;;;;;6.57;3.97;;;18.90;1.00;;;29.35;33.42;98216.63;5071512;28;20262;-74
2021/07/02 07:42:43;;;;;;;7.13;3.67;;;18.70;1.00;;;27.52;37.06;98208.56;5073607;28;20228;-74
2021/07/02 07:45:11;;;;;;;4.83;3.47;;;18.10;1.00;;;28.74;35.81;98208.31;5072038;28;20586;-72
2021/07/02 07:47:38;;;;;;;5.43;3.60;;;17.80;1.00;;;29.51;34.08;98213.16;5072919;28;20205;-73
2021/07/02 07:50:09;;;;;;;4.83;3.60;;;17.90;1.00;;;29.93;32.49;98219.94;5069024;28;20206;-72
2021/07/02 07:52:39;;;;;;;5.07;3.60;;;18.20;1.00;;;29.51;32.95;98215.91;5073671;28;20193;-75
2021/07/02 07:55:06;;;;;;;5.10;3.27;;;18.40;1.00;;;30.62;30.79;98222.47;5071961;28;20377;-73
2021/07/02 07:57:35;;;;;;;5.13;3.63;;;18.90;1.00;;;28.94;32.98;98219.59;5069725;28;20220;-72
2021/07/02 08:00:01;;;;;;;5.47;3.60;;;19.10;1.00;;;30.48;31.08;98227.34;5073305;28;20210;-73
2021/07/02 08:02:28;;;;;;;5.80;3.70;;;19.30;1.00;;;29.49;30.79;98233.84;5072354;28;20198;-73
2021/07/02 08:04:56;;;;;;;4.67;3.40;;;19.40;1.00;;;28.19;32.97;98224.16;5072877;28;20224;-72
2021/07/02 08:07:22;;;;;;;4.07;3.10;;;19.20;1.00;;;28.93;31.96;98228.19;5070522;28;20234;-75
2021/07/02 08:09:49;;;;;;;5.67;3.43;;;19.20;1.00;;;30.37;30.50;98231.53;5072140;28;20289;-73
2021/07/02 08:12:17;;;;;;;4.57;3.57;;;19.30;1.00;;;29.81;31.42;98230.75;5068172;28;20206;-74
2021/07/02 08:14:46;;;;;;;6.73;3.87;;;19.60;1.00;;;30.55;29.08;98244.19;5073024;28;20233;-73
2021/07/02 08:17:13;;;;;;;8.63;3.53;;;19.80;1.00;;;29.48;30.05;98245.97;5072677;28;20392;-73
2021/07/02 08:19:40;;;;;;;7.63;3.90;;;19.60;1.00;;;29.45;30.43;98241.09;5071590;28;20197;-74
2021/07/02 08:22:07;;;;;;;6.97;3.53;;;19.60;1.00;;;31.65;28.55;98245.97;5072385;28;20699;-74
2021/07/02 08:24:36;;;;;;;8.10;3.90;;;19.80;1.00;;;31.30;27.62;98236.19;5064824;28;20234;-73
2021/07/02 08:27:05;;;;;;;6.27;3.43;;;20.10;1.00;;;31.21;27.66;98243.66;5070125;28;20220;-74
2021/07/02 08:29:31;;;;;;;5.10;3.53;;;20.30;1.00;;;31.57;27.88;98237.72;5074472;28;20301;-74
2021/07/02 08:32:00;;;;;;;7.37;3.73;;;20.40;1.00;;;31.24;27.52;98239.44;5072537;28;20289;-73
2021/07/02 08:34:27;;;;;;;4.73;3.30;;;20.50;1.00;;;30.54;28.31;98239.81;5070886;28;20231;-74
2021/07/02 08:36:54;;;;;;;5.87;3.40;;;20.40;1.00;;;31.80;27.85;98237.16;5071608;28;20222;-73
2021/07/02 08:39:21;;;;;;;5.50;3.03;;;20.30;1.00;;;31.47;28.34;98238.09;5069321;28;20209;-74
2021/07/02 08:41:48;;;;;;;6.37;3.67;;;20.30;1.00;;;30.70;28.95;98243.72;5072913;28;20686;-73
2021/07/02 08:44:15;;;;;;;4.47;3.30;;;20.10;1.00;;;29.48;30.20;98243.22;5071427;28;20208;-74
2021/07/02 08:46:45;;;;;;;4.13;3.30;;;19.90;1.00;;;29.74;30.73;98238.69;5071969;28;20208;-73
2021/07/02 08:49:15;;;;;;;5.23;3.93;;;19.80;1.00;;;29.37;30.14;98241.88;5080316;28;20209;-74
2021/07/02 08:51:42;;;;;;;4.77;3.43;;;19.80;1.00;;;30.92;29.56;98243.53;5077794;28;20301;-73
2021/07/02 08:54:14;;;;;;;5.07;3.27;;;19.70;1.00;;;30.81;28.24;98255.25;5072570;28;20216;-74
2021/07/02 08:56:55;;;;;;;4.60;3.53;;;19.80;1.00;;;30.63;28.66;98251.66;5071175;28;20409;-74
2021/07/02 08:59:23;;;;;;;4.40;3.53;;;19.80;1.00;;;31.56;28.24;98258.97;5072790;28;20210;-74
2021/07/02 09:01:51;;;;;;;10.10;4.10;;;20.20;1.00;;;31.90;26.54;98256.09;5070448;28;20200;-74
2021/07/02 09:04:22;;;;;;;6.00;3.30;;;20.70;1.00;;;31.14;28.04;98259.88;5064323;28;20204;-74
2021/07/02 09:07:09;;;;;;;4.83;3.13;;;20.50;1.00;;;28.58;30.82;98254.56;5068219;28;20217;-75
2021/07/02 09:09:55;;;;;;;3.93;3.30;;;19.70;1.00;;;30.28;29.50;98263.78;5055528;28;20206;-74
2021/07/02 09:12:26;;;;;;;4.03;3.20;;;19.60;1.00;;;29.54;29.27;98270.28;5071322;28;20244;-74
2021/07/02 09:15:07;;;;;;;6.07;3.20;;;19.80;1.00;;;28.69;30.82;98255.16;5071779;28;20232;-72
2021/07/02 09:17:37;;;;;;;3.70;3.00;;;19.50;1.00;;;30.42;28.90;98266.38;5070071;28;20282;-72
2021/07/02 09:20:19;;;;;;;4.97;2.90;;;19.90;1.00;;;30.89;26.23;98273.69;5071679;28;20201;-75
2021/07/02 09:22:48;;;;;;;4.07;3.00;;;20.10;1.00;;;30.42;27.86;98264.44;5071277;28;20206;-74
2021/07/02 09:25:29;;;;;;;3.83;2.90;;;20.30;1.00;;;29.48;27.61;98273.47;5071067;28;20233;-73
2021/07/02 09:27:59;;;;;;;4.77;3.20;;;20.50;1.00;;;30.04;27.09;98263.34;5064729;28;20216;-72
2021/07/02 09:30:29;;;;;;;5.37;3.47;;;20.40;1.00;;;31.16;26.89;98259.56;5067523;28;20209;-74
2021/07/02 09:32:59;;;;;;;4.07;3.20;;;20.50;1.00;;;29.79;29.37;98255.03;5072443;28;20214;-73
2021/07/02 09:35:34;;;;;;;6.93;3.10;;;20.40;1.00;;;30.16;28.74;98255.31;5068707;28;20222;-73
2021/07/02 09:38:03;;;;;;;4.87;3.57;;;20.10;1.00;;;30.41;28.14;98265.56;5069383;28;20215;-75
2021/07/02 09:40:33;;;;;;;6.63;3.30;;;19.90;1.00;;;29.68;29.25;98261.94;5072836;28;20202;-79
2021/07/02 09:43:04;;;;;;;3.80;3.10;;;19.80;1.00;;;29.46;29.63;98259.22;5068299;28;20755;-73
2021/07/02 09:45:32;;;;;;;7.67;3.53;;;19.80;1.00;;;31.90;26.62;98267.16;5062787;28;20248;-75
2021/07/02 09:48:08;;;;;;;4.47;3.30;;;20.30;1.00;;;31.43;27.21;98265.53;5064456;28;20213;-75
2021/07/02 09:50:38;;;;;;;4.23;3.23;;;21.10;1.00;;;31.56;27.35;98269.19;5070408;28;20212;-79
2021/07/02 09:53:09;;;;;;;4.40;3.43;;;21.00;1.00;;;31.13;28.68;98271.25;5074247;28;20204;-76
2021/07/02 09:55:44;;;;;;;5.07;3.90;;;20.70;1.00;;;29.77;29.12;98276.53;5071206;28;20593;-72
2021/07/02 09:58:14;;;;;;;5.17;3.40;;;20.60;1.00;;;30.93;29.17;98269.16;5070783;28;20715;-73
2021/07/02 10:00:44;;;;;;;5.67;4.13;;;20.70;1.00;;;31.84;27.88;98278.72;5065372;28;20554;-72
2021/07/02 10:03:13;;;;;;;5.17;3.70;;;21.10;1.00;;;30.54;29.08;98272.88;5064168;28;20219;-73
2021/07/02 10:05:54;;;;;;;4.47;3.03;;;20.70;1.00;;;30.54;27.85;98272.03;5067926;28;20237;-74
2021/07/02 10:08:25;;;;;;;6.07;3.77;;;20.30;1.00;;;30.84;27.08;98277.44;5070681;28;20198;-73
2021/07/02 10:10:53;;;;;;;7.87;3.80;;;20.40;1.00;;;31.39;27.05;98281.13;5064738;28;20212;-72
2021/07/02 10:13:25;;;;;;;4.23;3.33;;;20.60;1.00;;;29.49;29.54;98275.13;5071336;28;20236;-71
2021/07/02 10:15:53;;;;;;;5.37;3.80;;;20.30;1.00;;;31.92;26.83;98272.34;5067217;28;20227;-71
2021/07/02 10:18:22;;;;;;;5.87;3.87;;;20.40;1.00;;;31.42;26.61;98280.44;5071061;28;20234;-79
2021/07/02 10:20:50;;;;;;;7.23;4.13;;;20.50;1.00;;;31.48;27.05;98281.88;5072950;28;20232;-75
2021/07/02 10:23:26;;;;;;;6.60;3.67;;;20.60;1.00;;;30.89;26.54;98280.03;5070865;28;20207;-79
2021/07/02 10:25:55;;;;;;;4.30;3.33;;;20.90;1.00;;;30.99;24.45;98285.22;5072292;28;20718;-74
2021/07/02 10:28:25;;;;;;;4.30;3.00;;;20.90;1.00;;;31.42;25.33;98277.69;5064548;28;20219;-73
2021/07/02 10:30:52;;;;;;;6.67;3.60;;;21.20;1.00;;;32.29;24.33;98274.28;5070311;28;20218;-78
2021/07/02 10:33:23;;;;;;;4.27;3.30;;;;;;;30.25;27.20;98280.94;5067865;28;20213;-75
2021/07/02 10:35:58;;;;;;;4.40;3.20;;;20.50;1.00;;;28.10;30.20;98267.19;5070938;28;20222;-77
2021/07/02 10:38:34;;;;;;;4.20;3.40;;;20.90;1.00;;;29.44;28.78;98262.28;5067501;28;20318;-74
2021/07/02 10:41:10;;;;;;;5.03;3.30;;;20.90;1.00;;;28.44;30.88;98264.81;5065875;28;20211;-70
2021/07/02 10:43:37;;;;;;;5.17;3.50;;;20.90;1.00;;;28.24;30.32;98267.97;5065860;28;20602;-78
2021/07/02 10:46:16;;;;;;;5.33;3.37;;;21.00;1.00;;;29.37;28.19;98269.38;5072013;28;20564;-72